Terminal Aerodrome Forecast
Issued by NWS

Home | Current Version | Previous Version | Graphics & Text | Print | Product List | Glossary On
Versions: 1 2 3 4 5 6 7 8 9 10 11 12 13 14 15 16 17 18 19 20 21
000
FTUS43 KBIS 290416 AAA
TAFDIK
TAF AMD
KDIK 290416Z 2904/2924 32007KT P6SM VCFG SCT100
      TEMPO 2904/2907 1SM BR SCT005
     FM291300 25007KT P6SM SCT250=

USA.gov is the U.S. government's official web portal to all federal, state and local government web resources and services.